Time;durP1;ratioP1;P1;durP2;ratioP2;P2;SDS_P1;SDS_P2;PMS_P1;PMS_P2;Temp;Humidity;BMP_temperature;BMP_pressure;BME280_temperature;BME280_humidity;BME280_pressure;Samples;Min_cycle;Max_cycle;Signal;HPM_P1;HPM_P2
2023/08/01 00:01:38;;;;;;;4.72;3.00;;;;;;;;;;5056901;28;20031;-74
2023/08/01 00:04:04;;;;;;;5.13;2.67;;;;;;;;;;5023646;28;1129549;-75
2023/08/01 00:06:30;;;;;;;7.35;2.72;;;;;;;;;;5072641;28;20029;-73
2023/08/01 00:08:56;;;;;;;4.53;2.80;;;;;;;;;;5072452;28;20051;-72
2023/08/01 00:11:22;;;;;;;9.05;3.05;;;;;;;;;;5072384;28;20064;-72
2023/08/01 00:13:48;;;;;;;5.43;2.60;;;;;;;;;;5072029;28;20481;-71
2023/08/01 00:16:14;;;;;;;4.35;2.83;;;;;;;;;;5072158;28;20024;-71
2023/08/01 00:18:40;;;;;;;5.68;2.65;;;;;;;;;;5072148;28;20020;-73
2023/08/01 00:21:09;;;;;;;3.38;2.40;;;;;;;;;;5072118;28;20390;-72
2023/08/01 00:23:35;;;;;;;5.22;2.60;;;;;;;;;;5071871;28;20025;-72
2023/08/01 00:26:01;;;;;;;3.55;2.47;;;;;;;;;;5072117;28;20029;-72
2023/08/01 00:28:27;;;;;;;3.58;2.22;;;;;;;;;;5071997;28;20033;-73
2023/08/01 00:31:13;;;;;;;4.20;2.10;;;;;;;;;;5071939;28;20059;-73
2023/08/01 00:33:39;;;;;;;3.83;2.30;;;;;;;;;;5071782;28;20025;-73
2023/08/01 00:36:10;;;;;;;2.33;1.90;;;;;;;;;;5071945;28;20016;-72
2023/08/01 00:38:37;;;;;;;3.50;2.10;;;;;;;;;;5071997;28;20028;-72
2023/08/01 00:41:03;;;;;;;2.15;1.65;;;;;;;;;;5072045;28;20063;-74
2023/08/01 00:43:29;;;;;;;3.78;1.92;;;;;;;;;;5070481;28;20466;-73
2023/08/01 00:45:58;;;;;;;3.10;2.00;;;;;;;;;;5071774;28;20103;-74
2023/08/01 00:48:24;;;;;;;3.63;1.80;;;;;;;;;;5070647;28;20017;-74
2023/08/01 00:50:50;;;;;;;3.00;1.80;;;;;;;;;;5071831;28;20025;-74
2023/08/01 00:53:17;;;;;;;5.30;2.10;;;;;;;;;;5071597;28;20063;-74
2023/08/01 00:55:44;;;;;;;2.63;1.92;;;;;;;;;;5071827;28;20023;-74
2023/08/01 00:58:10;;;;;;;3.42;1.67;;;;;;;;;;5071609;28;20025;-73
2023/08/01 01:00:36;;;;;;;2.55;1.60;;;;;;;;;;5070623;28;20025;-74
2023/08/01 01:03:02;;;;;;;3.28;2.20;;;;;;;;;;5071179;28;20391;-73
2023/08/01 01:05:30;;;;;;;3.47;2.00;;;;;;;;;;5071243;28;20024;-73
2023/08/01 01:07:56;;;;;;;4.93;2.00;;;;;;;;;;5072417;28;20053;-73
2023/08/01 01:10:22;;;;;;;2.80;2.00;;;;;;;;;;5072757;28;20390;-73
2023/08/01 01:12:50;;;;;;;4.18;2.17;;;;;;;;;;5072897;28;20020;-73
2023/08/01 01:15:16;;;;;;;5.00;1.90;;;;;;;;;;5073058;28;20027;-74
2023/08/01 01:17:42;;;;;;;2.05;1.77;;;;;;;;;;5071708;28;20040;-73
2023/08/01 01:20:08;;;;;;;5.45;2.00;;;;;;;;;;5073456;28;20020;-74
2023/08/01 01:22:34;;;;;;;6.93;1.92;;;;;;;;;;5073364;28;20058;-73
2023/08/01 01:25:01;;;;;;;2.35;1.77;;;;;;;;;;5073175;28;20035;-74
2023/08/01 01:27:28;;;;;;;3.70;2.45;;;;;;;;;;5073251;28;20052;-73
2023/08/01 01:29:54;;;;;;;5.93;3.13;;;;;;;;;;5073248;28;20398;-73
2023/08/01 01:32:20;;;;;;;5.35;3.10;;;;;;;;;;5071817;28;20074;-73
2023/08/01 01:34:46;;;;;;;6.25;3.22;;;;;;;;;;5072010;28;20060;-73
2023/08/01 01:37:12;;;;;;;4.35;2.88;;;;;;;;;;5071234;28;20025;-73
2023/08/01 01:39:38;;;;;;;7.15;3.95;;;;;;;;;;5071283;28;20021;-73
2023/08/01 01:42:04;;;;;;;5.32;3.95;;;;;;;;;;5071095;28;20029;-73
2023/08/01 01:44:31;;;;;;;6.45;4.70;;;;;;;;;;5071201;28;20151;-72
2023/08/01 01:46:57;;;;;;;7.72;4.18;;;;;;;;;;5071257;28;20025;-73
2023/08/01 01:49:24;;;;;;;7.53;4.97;;;;;;;;;;5071256;28;20028;-73
2023/08/01 01:51:50;;;;;;;6.88;4.72;;;;;;;;;;5070744;28;20024;-73
2023/08/01 01:54:16;;;;;;;6.22;5.18;;;;;;;;;;5071410;28;20029;-73
2023/08/01 01:56:42;;;;;;;7.57;4.82;;;;;;;;;;5071333;28;20021;-71
2023/08/01 01:59:08;;;;;;;8.13;5.78;;;;;;;;;;5071250;28;20379;-73
2023/08/01 02:01:34;;;;;;;8.68;5.95;;;;;;;;;;5074360;28;20050;-73
2023/08/01 02:04:00;;;;;;;8.60;6.57;;;;;;;;;;5077757;28;20032;-73
2023/08/01 02:06:26;;;;;;;7.57;6.35;;;;;;;;;;5080224;28;20033;-72
2023/08/01 02:08:52;;;;;;;12.07;7.47;;;;;;;;;;5078967;28;20147;-73
2023/08/01 02:11:18;;;;;;;8.95;7.13;;;;;;;;;;5078324;28;20080;-73
2023/08/01 02:13:44;;;;;;;10.02;7.55;;;;;;;;;;5080025;28;20389;-74
2023/08/01 02:16:10;;;;;;;9.52;7.90;;;;;;;;;;5077919;28;20158;-74
2023/08/01 02:18:36;;;;;;;10.52;8.85;;;;;;;;;;5078624;28;20028;-73
2023/08/01 02:21:03;;;;;;;14.68;9.23;;;;;;;;;;5078137;28;20020;-74
2023/08/01 02:23:29;;;;;;;18.25;10.23;;;;;;;;;;5077433;28;20025;-73
2023/08/01 02:25:55;;;;;;;14.98;10.05;;;;;;;;;;5077330;28;20023;-73
2023/08/01 02:28:21;;;;;;;19.20;10.48;;;;;;;;;;5077293;28;20024;-73
2023/08/01 02:30:47;;;;;;;11.73;9.70;;;;;;;;;;5077505;28;20036;-73
2023/08/01 02:33:13;;;;;;;17.90;11.05;;;;;;;;;;5076947;28;20025;-73
2023/08/01 02:35:40;;;;;;;18.00;11.52;;;;;;;;;;5077057;28;20518;-73
2023/08/01 02:38:06;;;;;;;16.92;11.10;;;;;;;;;;5076719;28;20025;-74
2023/08/01 02:40:32;;;;;;;18.25;11.77;;;;;;;;;;5074789;28;20031;-74
2023/08/01 02:42:58;;;;;;;17.27;12.75;;;;;;;;;;5074220;28;20099;-74
2023/08/01 02:45:25;;;;;;;15.32;11.52;;;;;;;;;;5074124;28;20021;-73
2023/08/01 02:47:51;;;;;;;16.65;11.93;;;;;;;;;;5074326;28;20020;-76
2023/08/01 02:50:17;;;;;;;16.42;11.75;;;;;;;;;;5073869;28;20028;-74
2023/08/01 02:52:43;;;;;;;25.05;14.20;;;;;;;;;;5073724;28;20035;-74
2023/08/01 02:55:09;;;;;;;16.83;12.43;;;;;;;;;;5074228;28;20052;-74
2023/08/01 02:57:35;;;;;;;26.10;13.13;;;;;;;;;;5073912;28;20024;-74
2023/08/01 03:00:04;;;;;;;20.17;12.77;;;;;;;;;;5072523;28;20048;-75
2023/08/01 03:02:31;;;;;;;18.98;13.77;;;;;;;;;;5073644;28;20043;-75
2023/08/01 03:04:57;;;;;;;17.65;13.32;;;;;;;;;;5073916;28;20453;-76
2023/08/01 03:07:23;;;;;;;21.98;14.25;;;;;;;;;;5074356;28;20035;-74
2023/08/01 03:09:49;;;;;;;18.90;13.05;;;;;;;;;;5074197;28;20032;-76
2023/08/01 03:12:15;;;;;;;18.55;12.82;;;;;;;;;;5064729;28;20052;-73
2023/08/01 03:14:43;;;;;;;26.00;15.18;;;;;;;;;;5053527;28;20029;-73
2023/08/01 03:17:09;;;;;;;19.70;14.27;;;;;;;;;;5052607;28;20018;-73
2023/08/01 03:19:35;;;;;;;25.50;14.02;;;;;;;;;;5053265;28;20483;-73
2023/08/01 03:22:01;;;;;;;19.60;14.95;;;;;;;;;;5044542;28;20108;-72
2023/08/01 03:24:27;;;;;;;26.45;16.52;;;;;;;;;;5032282;28;20029;-72
2023/08/01 03:26:53;;;;;;;22.00;14.38;;;;;;;;;;5033313;28;20135;-73
2023/08/01 03:29:19;;;;;;;24.42;15.98;;;;;;;;;;5033198;28;20026;-72
2023/08/01 03:31:45;;;;;;;26.13;15.23;;;;;;;;;;5032719;28;20430;-72
2023/08/01 03:34:12;;;;;;;28.08;15.23;;;;;;;;;;5032728;28;20101;-72
2023/08/01 03:36:38;;;;;;;28.45;14.82;;;;;;;;;;5032412;28;20105;-72
2023/08/01 03:39:04;;;;;;;21.42;14.30;;;;;;;;;;5033461;28;20060;-73
2023/08/01 03:41:30;;;;;;;23.17;14.45;;;;;;;;;;5031939;28;20053;-72
2023/08/01 03:43:56;;;;;;;20.65;13.90;;;;;;;;;;5032915;28;20027;-73
2023/08/01 03:46:22;;;;;;;31.83;15.77;;;;;;;;;;5034762;28;20099;-74
2023/08/01 03:48:48;;;;;;;24.60;16.17;;;;;;;;;;5036535;28;20030;-73
2023/08/01 03:51:15;;;;;;;23.75;15.52;;;;;;;;;;5038415;28;20112;-73
2023/08/01 03:53:41;;;;;;;24.23;15.00;;;;;;;;;;5037903;28;20018;-74
2023/08/01 03:56:08;;;;;;;36.85;17.08;;;;;;;;;;5037562;28;20026;-73
2023/08/01 03:58:33;;;;;;;23.52;16.33;;;;;;;;;;5039525;28;20028;-74
2023/08/01 04:00:59;;;;;;;23.02;15.32;;;;;;;;;;5046477;28;20025;-73
2023/08/01 04:03:26;;;;;;;29.17;16.15;;;;;;;;;;5047804;28;20041;-72
2023/08/01 04:05:52;;;;;;;29.27;15.93;;;;;;;;;;5046819;28;20041;-73
2023/08/01 04:08:18;;;;;;;21.05;15.07;;;;;;;;;;5048327;28;20025;-74
2023/08/01 04:10:44;;;;;;;23.55;14.02;;;;;;;;;;5050696;28;20033;-73
2023/08/01 04:13:10;;;;;;;27.98;16.05;;;;;;;;;;5049124;28;20009;-73
2023/08/01 04:15:36;;;;;;;23.30;14.25;;;;;;;;;;5054096;28;20081;-71
2023/08/01 04:18:02;;;;;;;23.13;14.20;;;;;;;;;;5054652;28;20048;-72
2023/08/01 04:20:28;;;;;;;24.35;15.25;;;;;;;;;;5054651;28;20029;-73
2023/08/01 04:22:54;;;;;;;23.50;14.82;;;;;;;;;;5043441;28;20071;-74
2023/08/01 04:25:20;;;;;;;23.85;14.98;;;;;;;;;;5032391;28;20025;-73
2023/08/01 04:27:46;;;;;;;31.52;16.20;;;;;;;;;;5031782;28;20053;-73
2023/08/01 04:30:12;;;;;;;27.10;16.10;;;;;;;;;;5031705;28;20057;-73
2023/08/01 04:32:38;;;;;;;29.70;15.50;;;;;;;;;;5030233;28;20029;-73
2023/08/01 04:35:04;;;;;;;27.60;15.27;;;;;;;;;;5030940;28;20021;-73
2023/08/01 04:37:30;;;;;;;22.20;14.45;;;;;;;;;;5032270;28;20108;-73
2023/08/01 04:39:56;;;;;;;24.35;15.18;;;;;;;;;;5040032;28;20057;-73
2023/08/01 04:42:22;;;;;;;25.90;15.48;;;;;;;;;;5029715;28;20041;-72
2023/08/01 04:44:48;;;;;;;26.85;15.68;;;;;;;;;;5030780;28;20026;-72
2023/08/01 04:47:15;;;;;;;25.75;15.93;;;;;;;;;;5030757;28;20102;-73
2023/08/01 04:49:41;;;;;;;28.38;18.17;;;;;;;;;;5030950;28;20590;-72
2023/08/01 04:52:07;;;;;;;25.42;16.33;;;;;;;;;;5044957;28;20383;-76
2023/08/01 04:54:33;;;;;;;26.08;15.93;;;;;;;;;;5048184;28;20033;-77
2023/08/01 04:56:59;;;;;;;25.80;16.02;;;;;;;;;;5062136;28;20061;-75
2023/08/01 04:59:25;;;;;;;32.03;17.17;;;;;;;;;;5060130;28;20071;-75
2023/08/01 05:01:51;;;;;;;22.10;15.80;;;;;;;;;;5052543;28;20017;-75
2023/08/01 05:04:17;;;;;;;23.02;15.35;;;;;;;;;;5055591;28;20060;-74
2023/08/01 05:06:43;;;;;;;21.75;14.82;;;;;;;;;;5056087;28;20304;-74
2023/08/01 05:09:09;;;;;;;21.45;14.63;;;;;;;;;;5050676;28;20036;-75
2023/08/01 05:11:35;;;;;;;22.30;13.90;;;;;;;;;;5060258;28;20032;-75
2023/08/01 05:14:01;;;;;;;26.08;14.75;;;;;;;;;;5059515;28;20455;-73
2023/08/01 05:16:27;;;;;;;25.20;12.95;;;;;;;;;;5065049;28;20025;-74
2023/08/01 05:18:53;;;;;;;30.83;14.10;;;;;;;;;;5071190;28;20119;-73
2023/08/01 05:21:19;;;;;;;27.33;14.02;;;;;;;;;;5072418;28;20432;-73
2023/08/01 05:23:45;;;;;;;25.02;13.70;;;;;;;;;;5072490;28;20029;-73
2023/08/01 05:26:11;;;;;;;26.48;13.00;;;;;;;;;;5072744;28;20020;-71
2023/08/01 05:28:37;;;;;;;30.25;13.07;;;;;;;;;;5071254;28;20495;-72
2023/08/01 05:31:03;;;;;;;22.63;11.90;;;;;;;;;;5071311;28;20068;-70
2023/08/01 05:33:28;;;;;;;24.40;11.95;;;;;;;;;;5070774;28;20039;-72
2023/08/01 05:35:55;;;;;;;20.17;12.43;;;;;;;;;;5052004;28;20020;-72
2023/08/01 05:38:21;;;;;;;19.60;11.63;;;;;;;;;;5056742;28;20050;-72
2023/08/01 05:40:47;;;;;;;20.95;11.05;;;;;;;;;;5060849;28;20044;-72
2023/08/01 05:43:13;;;;;;;17.88;11.52;;;;;;;;;;5059757;28;20021;-72
2023/08/01 05:45:39;;;;;;;22.05;12.07;;;;;;;;;;5054320;28;20025;-72
2023/08/01 05:48:06;;;;;;;20.25;10.65;;;;;;;;;;5068211;28;20055;-73
2023/08/01 05:50:32;;;;;;;24.67;10.93;;;;;;;;;;5068668;28;20511;-72
2023/08/01 05:52:58;;;;;;;20.40;10.77;;;;;;;;;;5052956;28;20047;-73
2023/08/01 05:55:24;;;;;;;20.52;10.50;;;;;;;;;;5066760;28;20024;-71
2023/08/01 05:57:52;;;;;;;23.17;10.35;;;;;;;;;;5060675;28;20033;-73
2023/08/01 06:00:20;;;;;;;19.20;10.00;;;;;;;;;;5062174;28;20025;-73
2023/08/01 06:02:46;;;;;;;23.00;10.02;;;;;;;;;;5051754;28;20112;-73
2023/08/01 06:05:12;;;;;;;18.20;9.43;;;;;;;;;;5066859;28;20028;-73
2023/08/01 06:07:38;;;;;;;14.50;9.30;;;;;;;;;;5071355;28;20398;-73
2023/08/01 06:10:04;;;;;;;22.13;8.63;;;;;;;;;;5066273;28;20028;-74
2023/08/01 06:12:30;;;;;;;17.33;8.55;;;;;;;;;;5064066;28;20029;-72
2023/08/01 06:14:56;;;;;;;16.02;8.35;;;;;;;;;;5055290;28;20412;-73
2023/08/01 06:17:22;;;;;;;25.00;7.97;;;;;;;;;;5060439;28;20031;-72
2023/08/01 06:19:49;;;;;;;16.48;7.40;;;;;;;;;;5065873;28;20103;-71
2023/08/01 06:22:15;;;;;;;20.63;7.57;;;;;;;;;;5073997;28;20020;-73
2023/08/01 06:24:41;;;;;;;16.00;8.52;;;;;;;;;;5067252;28;20025;-73
2023/08/01 06:27:07;;;;;;;23.38;7.47;;;;;;;;;;5052927;28;20029;-73
2023/08/01 06:29:33;;;;;;;18.23;7.45;;;;;;;;;;5053830;28;20058;-73
2023/08/01 06:31:59;;;;;;;20.92;6.70;;;;;;;;;;5053374;28;20056;-73
2023/08/01 06:34:26;;;;;;;14.48;6.70;;;;;;;;;;5053509;28;20024;-74
2023/08/01 06:36:52;;;;;;;17.73;6.15;;;;;;;;;;5053838;28;20075;-71
2023/08/01 06:39:18;;;;;;;15.90;6.43;;;;;;;;;;5053074;28;20375;-73
2023/08/01 06:41:44;;;;;;;17.15;6.03;;;;;;;;;;5053268;28;20121;-74
2023/08/01 06:44:09;;;;;;;13.52;5.50;;;;;;;;;;5053119;28;20021;-73
2023/08/01 06:46:35;;;;;;;17.00;5.50;;;;;;;;;;5053089;28;20406;-74
2023/08/01 06:49:01;;;;;;;15.02;4.95;;;;;;;;;;5053039;28;20055;-73
2023/08/01 06:51:27;;;;;;;11.35;4.85;;;;;;;;;;5053251;28;20040;-73
2023/08/01 06:53:53;;;;;;;17.73;5.20;;;;;;;;;;5051027;28;20037;-73
2023/08/01 06:56:20;;;;;;;14.93;5.00;;;;;;;;;;5052292;28;20087;-72
2023/08/01 06:58:46;;;;;;;12.60;5.13;;;;;;;;;;5052277;28;20025;-72
2023/08/01 07:01:12;;;;;;;14.88;4.88;;;;;;;;;;5052087;28;20044;-73
2023/08/01 07:03:38;;;;;;;19.63;5.45;;;;;;;;;;5051950;28;20051;-73
2023/08/01 07:06:04;;;;;;;14.98;5.03;;;;;;;;;;5051992;28;20033;-73
2023/08/01 07:08:32;;;;;;;17.05;5.07;;;;;;;;;;5051823;28;20421;-72
2023/08/01 07:10:58;;;;;;;20.17;5.03;;;;;;;;;;5052058;28;20640;-73
2023/08/01 07:13:25;;;;;;;21.23;5.38;;;;;;;;;;5051593;28;20032;-72
2023/08/01 07:15:51;;;;;;;19.42;5.18;;;;;;;;;;5052183;28;20029;-74
2023/08/01 07:18:17;;;;;;;14.30;5.05;;;;;;;;;;5051956;28;20116;-74
2023/08/01 07:20:43;;;;;;;17.73;4.97;;;;;;;;;;5051379;28;20021;-73
2023/08/01 07:23:09;;;;;;;17.02;4.82;;;;;;;;;;5051499;28;20017;-74
2023/08/01 07:25:35;;;;;;;10.20;4.40;;;;;;;;;;5052343;28;20037;-72
2023/08/01 07:28:01;;;;;;;14.93;4.53;;;;;;;;;;5052011;28;20360;-74
2023/08/01 07:30:28;;;;;;;12.00;4.80;;;;;;;;;;5052106;28;20025;-74
2023/08/01 07:32:54;;;;;;;16.02;5.20;;;;;;;;;;5051230;28;20086;-72
2023/08/01 07:35:20;;;;;;;12.40;5.00;;;;;;;;;;5052191;28;20020;-71
2023/08/01 07:37:45;;;;;;;16.02;4.78;;;;;;;;;;5051173;28;20021;-74
2023/08/01 07:40:12;;;;;;;11.43;4.45;;;;;;;;;;5052330;28;20025;-75
2023/08/01 07:42:38;;;;;;;10.05;4.15;;;;;;;;;;5051529;28;20025;-72
2023/08/01 07:45:04;;;;;;;11.65;4.40;;;;;;;;;;5051571;28;20028;-74
2023/08/01 07:47:30;;;;;;;11.82;4.35;;;;;;;;;;5051519;28;20044;-72
2023/08/01 07:49:56;;;;;;;17.65;4.55;;;;;;;;;;5049597;28;20483;-72
2023/08/01 07:52:22;;;;;;;16.48;5.00;;;;;;;;;;5050251;28;20064;-71
2023/08/01 07:54:48;;;;;;;15.00;4.60;;;;;;;;;;5051287;28;20048;-72
2023/08/01 07:57:14;;;;;;;18.40;4.53;;;;;;;;;;5051640;28;20096;-73
2023/08/01 07:59:40;;;;;;;18.40;4.40;;;;;;;;;;5052056;28;20032;-73
2023/08/01 08:02:06;;;;;;;15.50;5.55;;;;;;;;;;5052335;28;20053;-74
2023/08/01 08:04:32;;;;;;;18.92;4.75;;;;;;;;;;5052501;28;20059;-74
2023/08/01 08:06:59;;;;;;;17.75;5.03;;;;;;;;;;5052363;28;20029;-75
2023/08/01 08:09:26;;;;;;;18.10;5.43;;;;;;;;;;5052142;28;20033;-74
2023/08/01 08:11:52;;;;;;;15.40;4.72;;;;;;;;;;5052159;28;20041;-74
2023/08/01 08:14:20;;;;;;;14.40;4.80;;;;;;;;;;5058500;28;20029;-73
2023/08/01 08:16:46;;;;;;;14.25;4.15;;;;;;;;;;5069086;28;20028;-73
2023/08/01 08:19:12;;;;;;;13.05;4.20;;;;;;;;;;5071340;28;20024;-73
2023/08/01 08:21:38;;;;;;;11.98;4.00;;;;;;;;;;5064178;28;20029;-72
2023/08/01 08:24:04;;;;;;;10.57;4.47;;;;;;;;;;5062340;28;20070;-72
2023/08/01 08:26:31;;;;;;;11.48;3.97;;;;;;;;;;5052148;28;20060;-74
2023/08/01 08:28:57;;;;;;;13.88;4.03;;;;;;;;;;5052170;28;20029;-75
2023/08/01 08:31:23;;;;;;;10.80;3.70;;;;;;;;;;5051831;28;20483;-75
2023/08/01 08:33:49;;;;;;;15.68;4.70;;;;;;;;;;5051804;28;20028;-75
2023/08/01 08:36:15;;;;;;;15.48;4.88;;;;;;;;;;5052413;28;20086;-74
2023/08/01 08:38:41;;;;;;;13.43;5.00;;;;;;;;;;5051905;28;20163;-73
2023/08/01 08:41:26;;;;;;;12.65;4.50;;;;;;;;;;5052211;28;20017;-72
2023/08/01 08:43:56;;;;;;;11.48;3.67;;;;;;;;;;5051514;28;20483;-72
2023/08/01 08:46:22;;;;;;;16.85;4.35;;;;;;;;;;5052221;28;20532;-76
2023/08/01 08:48:48;;;;;;;18.05;5.05;;;;;;;;;;5052417;28;20029;-75
2023/08/01 08:51:14;;;;;;;12.18;4.68;;;;;;;;;;5054434;28;20040;-74
2023/08/01 08:53:41;;;;;;;14.68;4.90;;;;;;;;;;5053437;28;20033;-74
2023/08/01 08:56:08;;;;;;;22.33;5.30;;;;;;;;;;5051937;28;20048;-73
2023/08/01 08:58:35;;;;;;;17.75;4.57;;;;;;;;;;5051826;28;20025;-72
2023/08/01 09:01:01;;;;;;;11.32;3.92;;;;;;;;;;5051658;28;20588;-71
2023/08/01 09:03:28;;;;;;;12.57;3.10;;;;;;;;;;5052091;28;20029;-73
2023/08/01 09:06:03;;;;;;;18.70;4.32;;;;;;;;;;5057204;28;20025;-73
2023/08/01 09:08:30;;;;;;;10.30;4.30;;;;;;;;;;5056056;28;20025;-75
2023/08/01 09:10:56;;;;;;;8.45;3.22;;;;;;;;;;5055367;28;20082;-74
2023/08/01 09:13:22;;;;;;;10.55;4.18;;;;;;;;;;5054162;28;20044;-73
2023/08/01 09:15:48;;;;;;;13.13;4.40;;;;;;;;;;5055294;28;20463;-73
2023/08/01 09:18:14;;;;;;;14.40;4.20;;;;;;;;;;5056091;28;20025;-73
2023/08/01 09:20:46;;;;;;;9.02;3.90;;;;;;;;;;5054609;28;20032;-73
2023/08/01 09:23:12;;;;;;;10.57;3.95;;;;;;;;;;5057164;28;20021;-72
2023/08/01 09:25:38;;;;;;;11.68;3.22;;;;;;;;;;5059237;28;20394;-74
2023/08/01 09:28:15;;;;;;;7.93;3.75;;;;;;;;;;5059399;28;20017;-72
2023/08/01 09:30:51;;;;;;;21.05;12.23;;;;;;;;;;5057756;28;20147;-73
2023/08/01 09:33:18;;;;;;;12.07;4.22;;;;;;;;;;5058068;28;20445;-75
2023/08/01 09:35:45;;;;;;;6.57;3.42;;;;;;;;;;5060223;28;20056;-74
2023/08/01 09:38:13;;;;;;;10.68;4.53;;;;;;;;;;5060571;28;20100;-75
2023/08/01 09:40:40;;;;;;;10.02;4.00;;;;;;;;;;5061055;28;20355;-73
2023/08/01 09:43:06;;;;;;;7.47;4.03;;;;;;;;;;5060954;28;20562;-73
2023/08/01 09:45:34;;;;;;;8.77;4.00;;;;;;;;;;5064149;28;20108;-74
2023/08/01 09:48:00;;;;;;;9.15;3.53;;;;;;;;;;5063291;28;20017;-73
2023/08/01 09:50:26;;;;;;;9.48;3.20;;;;;;;;;;5058165;28;20028;-74
2023/08/01 09:52:52;;;;;;;8.00;3.17;;;;;;;;;;5058592;28;20025;-73
2023/08/01 09:55:34;;;;;;;8.38;3.38;;;;;;;;;;5058483;28;20367;-73
2023/08/01 09:58:00;;;;;;;8.98;3.45;;;;;;;;;;5058748;28;20025;-73
2023/08/01 10:00:27;;;;;;;10.90;3.03;;;;;;;;;;5060971;28;20032;-72
2023/08/01 10:02:53;;;;;;;8.73;3.00;;;;;;;;;;5054106;28;20037;-74
2023/08/01 10:05:20;;;;;;;8.45;2.28;;;;;;;;;;5054723;28;20033;-72
2023/08/01 10:07:47;;;;;;;6.90;2.65;;;;;;;;;;5054383;28;20032;-72
2023/08/01 10:10:14;;;;;;;6.63;2.50;;;;;;;;;;5054626;28;20063;-72
2023/08/01 10:12:43;;;;;;;9.90;2.50;;;;;;;;;;5054431;28;20029;-74
2023/08/01 10:15:09;;;;;;;9.18;2.80;;;;;;;;;;5054507;28;20032;-74
2023/08/01 10:17:35;;;;;;;8.35;2.20;;;;;;;;;;5054298;28;20027;-74
2023/08/01 10:20:03;;;;;;;6.18;2.03;;;;;;;;;;5054427;28;20055;-74
2023/08/01 10:22:29;;;;;;;5.95;2.10;;;;;;;;;;5054025;28;20296;-73
2023/08/01 10:24:56;;;;;;;4.38;1.80;;;;;;;;;;5054458;28;20029;-74
2023/08/01 10:27:22;;;;;;;6.07;2.10;;;;;;;;;;5054177;28;20028;-74
2023/08/01 10:29:58;;;;;;;6.85;2.00;;;;;;;;;;5054261;28;20021;-74
2023/08/01 10:32:33;;;;;;;5.30;1.98;;;;;;;;;;5053597;28;20029;-73
2023/08/01 10:34:59;;;;;;;5.63;1.85;;;;;;;;;;5054289;28;20109;-72
2023/08/01 10:37:26;;;;;;;8.27;2.00;;;;;;;;;;5054224;28;20044;-73
2023/08/01 10:39:59;;;;;;;4.88;1.50;;;;;;;;;;5053914;28;20025;-73
2023/08/01 10:42:25;;;;;;;6.53;1.60;;;;;;;;;;5053593;28;20048;-72
2023/08/01 10:44:51;;;;;;;3.45;1.45;;;;;;;;;;5054286;28;20025;-73
2023/08/01 10:47:27;;;;;;;4.82;1.55;;;;;;;;;;5054015;28;20032;-73
2023/08/01 10:49:53;;;;;;;6.40;1.85;;;;;;;;;;5054033;28;20029;-72
2023/08/01 10:52:26;;;;;;;6.20;1.90;;;;;;;;;;5053583;28;20075;-73
2023/08/01 10:54:59;;;;;;;4.00;1.40;;;;;;;;;;5054174;28;20021;-73
2023/08/01 10:57:25;;;;;;;4.50;1.40;;;;;;;;;;5053747;28;20029;-73
2023/08/01 10:59:51;;;;;;;4.70;1.73;;;;;;;;;;5053552;28;20031;-72
2023/08/01 11:02:21;;;;;;;4.18;1.40;;;;;;;;;;5053410;28;20163;-73
2023/08/01 11:04:57;;;;;;;2.97;1.05;;;;;;;;;;5053727;28;20218;-74
2023/08/01 11:07:23;;;;;;;4.45;1.17;;;;;;;;;;5053745;28;20053;-73
2023/08/01 11:09:50;;;;;;;3.38;1.08;;;;;;;;;;5053622;28;20033;-73
2023/08/01 11:12:16;;;;;;;3.50;1.10;;;;;;;;;;5052993;28;20025;-71
2023/08/01 11:14:42;;;;;;;5.07;1.30;;;;;;;;;;5053614;28;20102;-73
2023/08/01 11:17:08;;;;;;;3.83;1.27;;;;;;;;;;5053861;28;20033;-72
2023/08/01 11:19:34;;;;;;;5.13;1.75;;;;;;;;;;5053916;28;20128;-74
2023/08/01 11:22:09;;;;;;;3.28;1.10;;;;;;;;;;5053656;28;20029;-73
2023/08/01 11:24:35;;;;;;;5.18;1.30;;;;;;;;;;5053753;28;20049;-73
2023/08/01 11:27:01;;;;;;;5.15;1.25;;;;;;;;;;5053585;28;20040;-73
2023/08/01 11:29:27;;;;;;;2.78;1.00;;;;;;;;;;5053819;28;20025;-72
2023/08/01 11:31:54;;;;;;;3.22;0.88;;;;;;;;;;5052947;28;20063;-73
2023/08/01 11:34:20;;;;;;;3.97;0.95;;;;;;;;;;5053369;28;20028;-72
2023/08/01 11:36:46;;;;;;;6.65;1.25;;;;;;;;;;5053073;28;20398;-73
2023/08/01 11:39:13;;;;;;;5.50;0.93;;;;;;;;;;5052906;28;20505;-73
2023/08/01 11:41:39;;;;;;;11.23;4.50;;;;;;;;;;5053198;28;20510;-72
2023/08/01 11:44:06;;;;;;;3.05;1.45;;;;;;;;;;5050960;28;20501;-73
2023/08/01 11:46:33;;;;;;;2.88;1.70;;;;;;;;;;5052438;28;20025;-73
2023/08/01 11:49:00;;;;;;;3.75;1.00;;;;;;;;;;5052875;28;20055;-73
2023/08/01 11:51:26;;;;;;;3.67;2.00;;;;;;;;;;5052516;28;20397;-73
2023/08/01 11:54:02;;;;;;;1.52;0.80;;;;;;;;;;5052308;28;20082;-74
2023/08/01 11:56:28;;;;;;;1.35;0.95;;;;;;;;;;5052983;28;20087;-74
2023/08/01 11:58:54;;;;;;;2.33;0.80;;;;;;;;;;5052530;28;20028;-72
2023/08/01 12:01:21;;;;;;;2.35;1.00;;;;;;;;;;5052626;28;20029;-73
2023/08/01 12:03:50;;;;;;;2.42;0.85;;;;;;;;;;5052228;28;20040;-74
2023/08/01 12:06:17;;;;;;;2.65;0.90;;;;;;;;;;5052601;28;20075;-73
2023/08/01 12:08:44;;;;;;;2.17;1.00;;;;;;;;;;5052480;28;20026;-76
2023/08/01 12:11:19;;;;;;;2.15;0.80;;;;;;;;;;5052418;28;20036;-73
2023/08/01 12:13:46;;;;;;;1.88;0.60;;;;;;;;;;5051923;28;20017;-73
2023/08/01 12:16:12;;;;;;;3.17;0.80;;;;;;;;;;5052816;28;20027;-74
2023/08/01 12:18:39;;;;;;;1.95;1.02;;;;;;;;;;5056748;28;20131;-72
2023/08/01 12:21:05;;;;;;;12.90;1.60;;;;;;;;;;5056948;28;20079;-71
2023/08/01 12:23:31;;;;;;;2.42;1.00;;;;;;;;;;5056958;28;20108;-71
2023/08/01 12:25:57;;;;;;;4.00;1.10;;;;;;;;;;5052239;28;20033;-72
2023/08/01 12:28:23;;;;;;;2.58;0.82;;;;;;;;;;5052000;28;20029;-72
2023/08/01 12:30:51;;;;;;;5.93;0.80;;;;;;;;;;5052174;28;20036;-71
2023/08/01 12:33:17;;;;;;;2.53;0.90;;;;;;;;;;5051874;28;20021;-72
2023/08/01 12:35:43;;;;;;;4.50;0.98;;;;;;;;;;5051988;28;20108;-73
2023/08/01 12:38:09;;;;;;;2.22;1.10;;;;;;;;;;5051935;28;20032;-75
2023/08/01 12:40:35;;;;;;;3.47;1.15;;;;;;;;;;5051711;28;20025;-73
2023/08/01 12:43:02;;;;;;;2.22;0.95;;;;;;;;;;5051601;28;20340;-71
2023/08/01 12:45:28;;;;;;;3.47;1.23;;;;;;;;;;5051758;28;20025;-71
2023/08/01 12:47:54;;;;;;;4.43;1.00;;;;;;;;;;5051649;28;20095;-71
2023/08/01 12:50:20;;;;;;;3.05;1.35;;;;;;;;;;5051878;28;20021;-72
2023/08/01 12:52:46;;;;;;;3.63;1.08;;;;;;;;;;5051112;28;20474;-71
2023/08/01 12:55:12;;;;;;;5.13;1.70;;;;;;;;;;5051647;28;20029;-71
2023/08/01 12:57:38;;;;;;;3.53;1.27;;;;;;;;;;5052334;28;20060;-70
2023/08/01 13:00:04;;;;;;;5.20;1.33;;;;;;;;;;5052619;28;20364;-71
2023/08/01 13:02:30;;;;;;;3.60;1.23;;;;;;;;;;5052144;28;20029;-72
2023/08/01 13:04:56;;;;;;;4.40;0.88;;;;;;;;;;5052392;28;20458;-72
2023/08/01 13:07:22;;;;;;;1.65;1.00;;;;;;;;;;5052238;28;20028;-72
2023/08/01 13:09:48;;;;;;;5.03;1.42;;;;;;;;;;5052212;28;20035;-72
2023/08/01 13:12:14;;;;;;;3.50;1.30;;;;;;;;;;5051475;28;20112;-72
2023/08/01 13:14:40;;;;;;;4.80;1.40;;;;;;;;;;5053122;28;20021;-71
2023/08/01 13:17:06;;;;;;;2.15;1.02;;;;;;;;;;5055172;28;20142;-71
2023/08/01 13:19:32;;;;;;;4.88;1.02;;;;;;;;;;5055648;28;20036;-70
2023/08/01 13:21:58;;;;;;;4.13;1.77;;;;;;;;;;5051372;28;20025;-73
2023/08/01 13:24:24;;;;;;;3.15;1.50;;;;;;;;;;5051357;28;20021;-71
2023/08/01 13:26:50;;;;;;;2.95;1.40;;;;;;;;;;5051409;28;20086;-72
2023/08/01 13:29:16;;;;;;;5.78;2.17;;;;;;;;;;5051455;28;20056;-71
2023/08/01 13:31:42;;;;;;;2.88;1.10;;;;;;;;;;5051250;28;20092;-72
2023/08/01 13:34:08;;;;;;;2.72;0.90;;;;;;;;;;5051321;28;20097;-71
2023/08/01 13:36:34;;;;;;;6.47;1.20;;;;;;;;;;5051616;28;20025;-72
2023/08/01 13:39:00;;;;;;;3.42;1.85;;;;;;;;;;5055654;28;20017;-73
2023/08/01 13:41:26;;;;;;;5.00;2.08;;;;;;;;;;5054163;28;20029;-72
2023/08/01 13:43:52;;;;;;;5.80;2.92;;;;;;;;;;5053515;28;20092;-72
2023/08/01 13:46:22;;;;;;;15.38;6.75;;;;;;;;;;5054215;28;20447;-73
2023/08/01 13:48:48;;;;;;;9.77;5.35;;;;;;;;;;5060152;28;20486;-72
2023/08/01 13:51:14;;;;;;;3.70;1.52;;;;;;;;;;5056184;28;20032;-72
2023/08/01 13:53:41;;;;;;;16.17;2.55;;;;;;;;;;5057335;28;20368;-73
2023/08/01 13:56:08;;;;;;;6.93;2.47;;;;;;;;;;5058770;28;20025;-71
2023/08/01 13:58:34;;;;;;;5.50;1.30;;;;;;;;;;5057958;28;20021;-72
2023/08/01 14:01:04;;;;;;;4.78;1.20;;;;;;;;;;5052935;28;20600;-72
2023/08/01 14:03:31;;;;;;;3.20;1.27;;;;;;;;;;5045376;28;20030;-72
2023/08/01 14:05:57;;;;;;;3.67;1.10;;;;;;;;;;5031988;28;20120;-73
2023/08/01 14:08:23;;;;;;;4.80;1.20;;;;;;;;;;5030861;28;20021;-73
2023/08/01 14:10:49;;;;;;;3.20;1.10;;;;;;;;;;5033655;28;20215;-72
2023/08/01 14:13:15;;;;;;;4.72;1.05;;;;;;;;;;5050790;28;20099;-73
2023/08/01 14:15:41;;;;;;;2.00;0.80;;;;;;;;;;5053228;28;20105;-73
2023/08/01 14:18:07;;;;;;;2.95;0.80;;;;;;;;;;5053236;28;20475;-72
2023/08/01 14:20:33;;;;;;;2.10;0.70;;;;;;;;;;5049393;28;20022;-72
2023/08/01 14:22:59;;;;;;;4.03;1.77;;;;;;;;;;5032270;28;20026;-71
2023/08/01 14:25:25;;;;;;;5.53;1.80;;;;;;;;;;5033249;28;20505;-72
2023/08/01 14:27:51;;;;;;;4.70;1.30;;;;;;;;;;5033568;28;20025;-75
2023/08/01 14:30:17;;;;;;;1.85;0.70;;;;;;;;;;5033027;28;20100;-74